Time;durP1;ratioP1;P1;durP2;ratioP2;P2;SDS_P1;SDS_P2;PMS_P1;PMS_P2;Temp;Humidity;BMP_temperature;BMP_pressure;BME280_temperature;BME280_humidity;BME280_pressure;Samples;Min_cycle;Max_cycle;Signal;HPM_P1;HPM_P2
2023/01/23 00:00:56;;;;;;;38.83;22.95;;;4.40;64.30;;;;;;5072247;28;20503;-74
2023/01/23 00:03:22;;;;;;;40.67;22.93;;;4.40;63.80;;;;;;5072217;28;20982;-75
2023/01/23 00:06:02;;;;;;;35.30;20.95;;;4.30;64.30;;;;;;5071776;28;20380;-74
2023/01/23 00:08:29;;;;;;;35.42;21.80;;;4.30;65.50;;;;;;5071442;28;20861;-74
2023/01/23 00:10:54;;;;;;;32.38;20.88;;;4.30;64.20;;;;;;5072185;28;20387;-74
2023/01/23 00:13:20;;;;;;;33.40;20.70;;;4.50;62.00;;;;;;5071112;28;20429;-74
2023/01/23 00:15:46;;;;;;;35.53;19.95;;;4.40;62.40;;;;;;5071213;28;20469;-74
2023/01/23 00:18:12;;;;;;;34.25;21.10;;;4.40;63.20;;;;;;5071065;28;20498;-74
2023/01/23 00:20:39;;;;;;;33.13;20.63;;;4.40;64.20;;;;;;5053125;28;20601;-74
2023/01/23 00:23:05;;;;;;;39.30;20.65;;;4.50;61.60;;;;;;5071434;28;20882;-77
2023/01/23 00:25:32;;;;;;;32.72;20.02;;;4.50;60.10;;;;;;5071668;28;20392;-74
2023/01/23 00:27:58;;;;;;;33.30;19.88;;;4.40;59.90;;;;;;5070544;28;20398;-74
2023/01/23 00:30:23;;;;;;;38.87;21.37;;;4.30;61.60;;;;;;5070922;28;20462;-73
2023/01/23 00:32:49;;;;;;;37.27;21.30;;;4.30;62.20;;;;;;5072649;28;20499;-74
2023/01/23 00:35:15;;;;;;;42.67;23.87;;;4.20;63.60;;;;;;5074230;28;20469;-75
2023/01/23 00:37:41;;;;;;;38.00;23.13;;;4.10;65.70;;;;;;5074574;28;20903;-75
2023/01/23 00:40:07;;;;;;;38.25;22.48;;;4.20;65.70;;;;;;5075449;28;20384;-74
2023/01/23 00:42:33;;;;;;;41.92;23.05;;;4.30;65.60;;;;;;5056947;28;20510;-76
2023/01/23 00:44:59;;;;;;;38.13;23.00;;;4.30;66.10;;;;;;5057076;28;20396;-75
2023/01/23 00:47:24;;;;;;;37.17;23.15;;;4.30;65.00;;;;;;5075044;28;20387;-76
2023/01/23 00:49:52;;;;;;;40.17;23.93;;;4.20;65.90;;;;;;5057423;28;20387;-74
2023/01/23 00:52:18;;;;;;;38.50;23.50;;;4.20;66.40;;;;;;5076031;28;20410;-74
2023/01/23 00:54:44;;;;;;;43.95;25.25;;;4.30;64.70;;;;;;5076728;28;20388;-75
2023/01/23 00:57:09;;;;;;;39.00;23.60;;;4.20;66.80;;;;;;5076197;28;20894;-74
2023/01/23 00:59:35;;;;;;;42.30;24.03;;;4.20;65.60;;;;;;5075605;28;20383;-75
2023/01/23 01:02:00;;;;;;;46.63;25.27;;;4.30;66.70;;;;;;5076184;28;20857;-74
2023/01/23 01:04:26;;;;;;;44.93;25.83;;;4.30;68.10;;;;;;5058662;28;20386;-75
2023/01/23 01:06:52;;;;;;;40.10;25.50;;;4.30;67.60;;;;;;5075608;28;20761;-75
2023/01/23 01:09:17;;;;;;;44.22;25.75;;;4.30;67.10;;;;;;5075737;28;20936;-73
2023/01/23 01:11:43;;;;;;;47.60;26.98;;;4.30;68.40;;;;;;5074811;28;20481;-75
2023/01/23 01:14:09;;;;;;;45.85;27.08;;;4.30;69.30;;;;;;5074555;28;20391;-74
2023/01/23 01:16:34;;;;;;;46.03;26.90;;;4.30;70.20;;;;;;5073705;28;20391;-74
2023/01/23 01:19:00;;;;;;;46.73;25.87;;;4.30;70.00;;;;;;5073574;28;20388;-75
2023/01/23 01:21:25;;;;;;;43.57;26.07;;;4.20;69.60;;;;;;5073292;28;20435;-75
2023/01/23 01:23:51;;;;;;;43.95;27.20;;;4.20;72.50;;;;;;5073383;28;20406;-75
2023/01/23 01:26:17;;;;;;;46.22;27.23;;;4.10;70.20;;;;;;5073384;28;20857;-74
2023/01/23 01:28:43;;;;;;;42.78;25.77;;;4.10;72.80;;;;;;5072857;28;20756;-74
2023/01/23 01:31:12;;;;;;;47.33;26.70;;;4.20;70.20;;;;;;5073027;28;20857;-74
2023/01/23 01:33:39;;;;;;;46.17;26.60;;;4.40;66.10;;;;;;5072978;28;20384;-75
2023/01/23 01:36:12;;;;;;;49.25;27.80;;;4.40;63.90;;;;;;5072791;28;20908;-73
2023/01/23 01:38:38;;;;;;;41.80;25.85;;;4.40;65.60;;;;;;5072822;28;20487;-73
2023/01/23 01:41:04;;;;;;;41.42;25.30;;;4.40;64.10;;;;;;5072421;28;20482;-74
2023/01/23 01:43:30;;;;;;;45.50;26.13;;;4.40;63.80;;;;;;5071725;28;20372;-73
2023/01/23 01:46:22;;;;;;;44.45;26.58;;;4.30;64.30;;;;;;5072623;28;20383;-73
2023/01/23 01:49:10;;;;;;;45.20;25.55;;;4.30;65.20;;;;;;5072669;28;20390;-73
2023/01/23 01:51:45;;;;;;;50.25;26.70;;;4.20;67.80;;;;;;5072449;28;20820;-74
2023/01/23 01:54:24;;;;;;;41.78;25.63;;;4.20;67.80;;;;;;5072516;28;20406;-73
2023/01/23 01:57:02;;;;;;;46.83;26.70;;;4.30;66.10;;;;;;5054689;28;20388;-75
2023/01/23 01:59:34;;;;;;;44.73;26.00;;;4.20;66.20;;;;;;5074341;28;20382;-76
2023/01/23 02:02:08;;;;;;;43.83;25.63;;;4.10;67.30;;;;;;5063919;28;20404;-75
2023/01/23 02:04:37;;;;;;;42.78;26.17;;;4.10;67.60;;;;;;5086455;28;20379;-76
2023/01/23 02:07:08;;;;;;;43.42;25.38;;;4.10;68.30;;;;;;5072115;28;20883;-74
2023/01/23 02:09:34;;;;;;;42.20;25.20;;;4.10;68.30;;;;;;5072202;28;20398;-74
2023/01/23 02:12:01;;;;;;;42.30;25.85;;;4.10;68.90;;;;;;5072280;28;20387;-75
2023/01/23 02:14:27;;;;;;;40.55;24.45;;;4.10;68.70;;;;;;5054200;28;20745;-74
2023/01/23 02:16:58;;;;;;;40.53;25.20;;;4.10;69.10;;;;;;5072026;28;20437;-74
2023/01/23 02:19:54;;;;;;;42.05;25.20;;;4.10;69.20;;;;;;5072172;28;20390;-75
2023/01/23 02:22:34;;;;;;;38.58;23.98;;;4.10;69.40;;;;;;5020711;28;20419;-75
2023/01/23 02:25:24;;;;;;;40.85;23.67;;;4.20;67.60;;;;;;5071743;28;20387;-75
2023/01/23 02:27:50;;;;;;;34.97;22.23;;;4.20;67.00;;;;;;5071941;28;20380;-75
2023/01/23 02:30:17;;;;;;;37.83;23.05;;;4.20;66.00;;;;;;5053981;28;20387;-73
2023/01/23 02:32:43;;;;;;;40.40;23.80;;;4.20;65.90;;;;;;5071388;28;20391;-74
2023/01/23 02:35:18;;;;;;;39.03;23.77;;;4.20;67.40;;;;;;5071692;28;20395;-74
2023/01/23 02:37:46;;;;;;;40.83;24.27;;;4.10;69.10;;;;;;5071481;28;20466;-76
2023/01/23 02:40:13;;;;;;;38.75;22.80;;;4.10;69.90;;;;;;5071628;28;20527;-73
2023/01/23 02:42:41;;;;;;;35.60;23.65;;;4.30;67.50;;;;;;5071777;28;20391;-74
2023/01/23 02:45:08;;;;;;;36.83;23.60;;;4.30;67.10;;;;;;5073368;28;20561;-76
2023/01/23 02:47:34;;;;;;;38.23;22.00;;;4.40;65.10;;;;;;5053914;28;20460;-74
2023/01/23 02:49:59;;;;;;;34.70;22.50;;;4.30;63.80;;;;;;5072348;28;20710;-74
2023/01/23 02:52:25;;;;;;;37.87;23.27;;;4.20;65.40;;;;;;5054168;28;20391;-74
2023/01/23 02:54:51;;;;;;;35.40;22.43;;;4.00;66.10;;;;;;5070934;28;20384;-75
2023/01/23 02:57:16;;;;;;;35.60;22.60;;;4.00;67.60;;;;;;5071415;28;20832;-73
2023/01/23 03:02:26;;;;;;;39.77;24.43;;;3.80;68.90;;;;;;5071360;28;20461;-74
2023/01/23 03:04:52;;;;;;;36.90;23.40;;;3.60;70.40;;;;;;5071625;28;20388;-75
2023/01/23 03:07:18;;;;;;;36.87;23.93;;;3.50;72.60;;;;;;5071967;28;20487;-76
2023/01/23 03:09:46;;;;;;;40.53;24.80;;;3.40;75.30;;;;;;5074960;28;20391;-74
2023/01/23 03:12:13;;;;;;;38.35;24.10;;;3.30;76.10;;;;;;5075138;28;20443;-76
2023/01/23 03:14:39;;;;;;;38.80;23.95;;;3.10;78.60;;;;;;5056770;28;20407;-75
2023/01/23 03:17:04;;;;;;;39.73;24.77;;;3.20;79.40;;;;;;5072667;28;20434;-75
2023/01/23 03:19:30;;;;;;;38.97;24.98;;;3.00;80.30;;;;;;5071496;28;20451;-74
2023/01/23 03:21:56;;;;;;;37.35;25.25;;;3.10;79.70;;;;;;5071569;28;20481;-74
2023/01/23 03:24:21;;;;;;;41.20;26.17;;;2.90;80.80;;;;;;5071357;28;20479;-75
2023/01/23 03:26:48;;;;;;;40.57;26.23;;;2.80;83.50;;;;;;5053373;28;20383;-74
2023/01/23 03:32:01;;;;;;;36.35;22.88;;;3.00;82.80;;;;;;5071059;28;20407;-74
2023/01/23 03:34:27;;;;;;;34.28;22.40;;;3.10;79.70;;;;;;5070846;28;20380;-75
2023/01/23 03:36:52;;;;;;;35.90;23.00;;;3.20;79.20;;;;;;5070775;28;20391;-74
2023/01/23 03:42:02;;;;;;;38.20;23.13;;;3.50;76.40;;;;;;5070850;28;20430;-75
2023/01/23 03:44:28;;;;;;;34.47;22.00;;;3.60;74.50;;;;;;5071105;28;20380;-75
2023/01/23 03:46:53;;;;;;;33.93;21.13;;;3.60;73.00;;;;;;5071432;28;20926;-75
2023/01/23 03:49:19;;;;;;;35.50;22.83;;;3.60;70.00;;;;;;5071673;28;20382;-73
2023/01/23 03:51:44;;;;;;;31.50;21.25;;;3.60;70.20;;;;;;5070888;28;20462;-75
2023/01/23 03:54:10;;;;;;;30.37;20.67;;;3.70;71.60;;;;;;5072072;28;20845;-75
2023/01/23 03:56:36;;;;;;;32.60;21.63;;;3.70;71.50;;;;;;5073034;28;20467;-75
2023/01/23 03:59:02;;;;;;;31.30;20.85;;;3.70;72.50;;;;;;5072287;28;20403;-74
2023/01/23 04:01:28;;;;;;;31.65;21.10;;;3.80;69.80;;;;;;5070799;28;20895;-76
2023/01/23 04:03:54;;;;;;;30.33;20.23;;;3.80;68.70;;;;;;5070767;28;20470;-75
2023/01/23 04:06:20;;;;;;;32.73;21.70;;;3.80;67.10;;;;;;5070696;28;20386;-74
2023/01/23 04:08:45;;;;;;;32.95;20.48;;;3.80;69.00;;;;;;5074565;28;20841;-73
2023/01/23 04:11:12;;;;;;;31.33;19.67;;;3.80;66.40;;;;;;5074155;28;20722;-74
2023/01/23 04:13:37;;;;;;;29.35;18.98;;;3.70;66.10;;;;;;5074449;28;20892;-75
2023/01/23 04:16:04;;;;;;;30.00;20.30;;;3.70;66.30;;;;;;5074716;28;20402;-76
2023/01/23 04:18:30;;;;;;;33.75;21.02;;;3.60;69.00;;;;;;5074256;28;20387;-73
2023/01/23 04:20:56;;;;;;;30.73;20.38;;;3.70;69.10;;;;;;5074318;28;20418;-75
2023/01/23 04:23:22;;;;;;;31.23;20.73;;;3.70;69.50;;;;;;5074212;28;20875;-74
2023/01/23 04:25:48;;;;;;;32.92;21.00;;;3.80;68.70;;;;;;5075226;28;20375;-74
2023/01/23 04:28:14;;;;;;;32.08;20.85;;;3.80;69.50;;;;;;5077722;28;20867;-75
2023/01/23 04:30:39;;;;;;;32.92;21.40;;;3.80;66.70;;;;;;5078020;28;20395;-75
2023/01/23 04:33:05;;;;;;;32.70;21.37;;;3.80;66.80;;;;;;5080745;28;20380;-75
2023/01/23 04:35:31;;;;;;;33.07;21.20;;;3.80;66.00;;;;;;5093150;28;20388;-74
2023/01/23 04:37:56;;;;;;;33.67;22.27;;;3.80;66.30;;;;;;5090646;28;20391;-74
2023/01/23 04:40:22;;;;;;;36.75;22.15;;;3.70;66.30;;;;;;5075417;28;20458;-74
2023/01/23 04:42:47;;;;;;;33.83;21.55;;;3.80;68.90;;;;;;5073823;28;20372;-74
2023/01/23 04:45:13;;;;;;;32.67;21.33;;;3.80;67.50;;;;;;5074426;28;20881;-76
2023/01/23 04:47:38;;;;;;;35.33;23.07;;;3.80;67.60;;;;;;5073935;28;20849;-76
2023/01/23 04:50:04;;;;;;;34.37;22.53;;;3.90;68.30;;;;;;5074084;28;20380;-75
2023/01/23 04:52:30;;;;;;;36.97;23.17;;;3.80;69.20;;;;;;5073824;28;20387;-74
2023/01/23 04:54:56;;;;;;;35.88;23.63;;;3.80;69.50;;;;;;5073898;28;20726;-75
2023/01/23 04:57:21;;;;;;;39.43;24.87;;;3.70;69.10;;;;;;5073536;28;20383;-73
2023/01/23 04:59:47;;;;;;;36.30;23.70;;;3.60;72.90;;;;;;5073726;28;20783;-74
2023/01/23 05:02:12;;;;;;;36.57;23.27;;;3.80;71.40;;;;;;5073462;28;20399;-76
2023/01/23 05:04:38;;;;;;;37.78;22.88;;;3.90;69.20;;;;;;5073472;28;20392;-74
2023/01/23 05:07:03;;;;;;;39.25;25.13;;;3.80;68.90;;;;;;5073545;28;20417;-73
2023/01/23 05:09:29;;;;;;;40.13;24.15;;;3.70;71.00;;;;;;5055310;28;20380;-74
2023/01/23 05:11:54;;;;;;;45.07;25.87;;;3.60;73.90;;;;;;5072892;28;20388;-75
2023/01/23 05:14:22;;;;;;;38.47;24.23;;;3.30;76.80;;;;;;5073293;28;20391;-75
2023/01/23 05:16:48;;;;;;;42.13;26.25;;;3.10;80.60;;;;;;5073877;28;20384;-73
2023/01/23 05:19:14;;;;;;;39.63;25.77;;;2.90;83.80;;;;;;5073278;28;20387;-72
2023/01/23 05:21:39;;;;;;;40.57;25.97;;;2.90;87.50;;;;;;5072964;28;20443;-76
2023/01/23 05:24:05;;;;;;;49.53;27.40;;;2.90;88.30;;;;;;5073501;28;20863;-74
2023/01/23 05:26:31;;;;;;;41.35;24.38;;;2.90;88.60;;;;;;5073417;28;20442;-75
2023/01/23 05:28:56;;;;;;;39.50;23.17;;;3.00;91.60;;;;;;5073093;28;20808;-74
2023/01/23 05:31:22;;;;;;;37.13;23.27;;;3.50;82.80;;;;;;5073223;28;20391;-73
2023/01/23 05:33:48;;;;;;;37.87;22.60;;;3.50;80.10;;;;;;5055377;28;20392;-74
2023/01/23 05:36:13;;;;;;;35.73;22.03;;;3.60;74.60;;;;;;5055515;28;20940;-74
2023/01/23 05:38:39;;;;;;;38.40;22.47;;;3.50;77.10;;;;;;5073058;28;20563;-74
2023/01/23 05:41:04;;;;;;;32.60;20.50;;;3.60;78.80;;;;;;5073478;28;20408;-73
2023/01/23 05:43:30;;;;;;;33.45;21.00;;;3.60;76.40;;;;;;5073769;28;20871;-73
2023/01/23 05:46:00;;;;;;;30.57;19.63;;;3.50;73.80;;;;;;5073511;28;20441;-73
2023/01/23 05:48:25;;;;;;;32.70;19.80;;;3.40;74.80;;;;;;5072885;28;20754;-73
2023/01/23 05:50:51;;;;;;;31.45;20.13;;;3.40;76.90;;;;;;5072723;28;20380;-73
2023/01/23 05:53:16;;;;;;;28.83;19.40;;;3.30;77.00;;;;;;5055947;28;20395;-74
2023/01/23 05:55:42;;;;;;;30.42;19.30;;;3.30;75.20;;;;;;5075928;28;20521;-74
2023/01/23 05:58:08;;;;;;;29.37;19.33;;;3.10;76.80;;;;;;5075644;28;20383;-75
2023/01/23 06:00:33;;;;;;;28.27;18.43;;;3.00;77.20;;;;;;5055386;28;20400;-76
2023/01/23 06:02:59;;;;;;;30.75;19.85;;;3.10;76.80;;;;;;5072585;28;20384;-74
2023/01/23 06:05:25;;;;;;;32.45;20.25;;;3.00;78.90;;;;;;5072431;28;20742;-74
2023/01/23 06:07:51;;;;;;;32.53;20.40;;;3.00;79.10;;;;;;5072709;28;20474;-76
2023/01/23 06:10:16;;;;;;;32.27;19.83;;;3.00;78.30;;;;;;5054409;28;20474;-73
2023/01/23 06:12:42;;;;;;;33.88;19.60;;;2.90;77.90;;;;;;5072735;28;20380;-75
2023/01/23 06:15:08;;;;;;;34.30;20.30;;;2.90;80.40;;;;;;5072765;28;20380;-75
2023/01/23 06:17:34;;;;;;;31.85;20.33;;;2.90;79.20;;;;;;5073744;28;20383;-74
2023/01/23 06:19:59;;;;;;;31.67;20.27;;;2.90;78.90;;;;;;5075172;28;20445;-75
2023/01/23 06:22:25;;;;;;;32.00;20.87;;;2.90;80.30;;;;;;5055402;28;20410;-74
2023/01/23 06:24:51;;;;;;;32.80;20.43;;;2.80;81.30;;;;;;5074537;28;20370;-74
2023/01/23 06:27:17;;;;;;;33.92;20.63;;;2.80;82.10;;;;;;5073937;28;20459;-75
2023/01/23 06:29:42;;;;;;;31.80;20.00;;;2.90;81.60;;;;;;5073158;28;20431;-75
2023/01/23 06:32:08;;;;;;;31.55;20.85;;;2.90;80.60;;;;;;5074592;28;20865;-76
2023/01/23 06:34:35;;;;;;;31.85;20.70;;;2.80;82.30;;;;;;5073978;28;20503;-74
2023/01/23 06:37:01;;;;;;;31.13;20.33;;;2.70;83.40;;;;;;5072848;28;20406;-75
2023/01/23 06:39:29;;;;;;;32.40;20.55;;;2.60;86.90;;;;;;5073564;28;20757;-75
2023/01/23 06:41:55;;;;;;;34.33;21.75;;;2.50;87.60;;;;;;5073538;28;20404;-73
2023/01/23 06:44:20;;;;;;;37.40;22.50;;;2.40;92.30;;;;;;5073968;28;20467;-75
2023/01/23 06:46:46;;;;;;;37.53;22.60;;;2.30;94.00;;;;;;5074492;28;20877;-74
2023/01/23 06:49:11;;;;;;;36.83;22.43;;;2.30;95.50;;;;;;5073294;28;20799;-74
2023/01/23 06:51:37;;;;;;;35.73;21.60;;;2.30;97.80;;;;;;5072267;28;20791;-75
2023/01/23 06:54:03;;;;;;;34.40;21.23;;;2.50;98.20;;;;;;5071850;28;20816;-73
2023/01/23 06:56:28;;;;;;;33.28;20.95;;;2.70;93.40;;;;;;5072044;28;20390;-76
2023/01/23 06:58:54;;;;;;;34.13;20.30;;;2.90;89.10;;;;;;5071533;28;20749;-75
2023/01/23 07:01:20;;;;;;;33.08;20.48;;;3.00;87.50;;;;;;5071930;28;20400;-74
2023/01/23 07:03:45;;;;;;;35.28;20.85;;;3.20;84.40;;;;;;5071579;28;20865;-75
2023/01/23 07:06:13;;;;;;;31.80;19.97;;;3.20;83.80;;;;;;5071972;28;20769;-74
2023/01/23 07:08:41;;;;;;;31.33;19.80;;;3.50;79.20;;;;;;5077656;28;20376;-74
2023/01/23 07:11:07;;;;;;;31.33;19.60;;;3.60;77.30;;;;;;5080216;28;20388;-74
2023/01/23 07:13:32;;;;;;;30.27;19.15;;;3.70;77.00;;;;;;5072319;28;20899;-76
2023/01/23 07:15:58;;;;;;;28.90;18.07;;;3.70;75.40;;;;;;5071489;28;20415;-74
2023/01/23 07:18:27;;;;;;;31.13;19.30;;;3.60;77.10;;;;;;5071864;28;20384;-74
2023/01/23 07:20:52;;;;;;;29.80;18.40;;;3.70;76.90;;;;;;5070957;28;20408;-75
2023/01/23 07:23:18;;;;;;;29.42;18.77;;;3.80;74.80;;;;;;5052939;28;20434;-76
2023/01/23 07:25:44;;;;;;;30.67;18.70;;;3.80;73.10;;;;;;5071385;28;20380;-74
2023/01/23 07:28:09;;;;;;;28.70;17.70;;;3.80;73.50;;;;;;5070955;28;20391;-74
2023/01/23 07:30:35;;;;;;;29.20;18.30;;;3.90;72.70;;;;;;5071806;28;20384;-75
2023/01/23 07:33:01;;;;;;;29.25;18.55;;;3.80;73.70;;;;;;5071660;28;20387;-75
2023/01/23 07:35:42;;;;;;;29.33;18.17;;;3.90;72.20;;;;;;5088217;27;20356;-72
2023/01/23 07:38:07;;;;;;;30.77;18.83;;;3.90;73.30;;;;;;5088023;28;20371;-71
2023/01/23 07:40:33;;;;;;;32.25;20.17;;;3.90;74.10;;;;;;5087710;28;20574;-75
2023/01/23 07:42:58;;;;;;;32.35;19.90;;;3.90;75.00;;;;;;5086566;28;20721;-75
2023/01/23 07:45:25;;;;;;;31.07;19.80;;;4.00;74.00;;;;;;5088492;28;20856;-76
2023/01/23 07:47:50;;;;;;;32.40;20.08;;;4.00;71.30;;;;;;5088298;28;21046;-73
2023/01/23 07:50:16;;;;;;;30.50;19.53;;;4.00;71.00;;;;;;5088975;28;20379;-73
2023/01/23 07:52:42;;;;;;;29.50;18.70;;;4.10;69.70;;;;;;5088080;28;20387;-73
2023/01/23 07:55:08;;;;;;;34.65;19.00;;;4.10;68.70;;;;;;5088270;28;20406;-74
2023/01/23 07:57:33;;;;;;;30.75;18.80;;;4.10;69.10;;;;;;5088197;28;20379;-73
2023/01/23 07:59:59;;;;;;;32.67;19.47;;;4.10;67.90;;;;;;5088451;28;20379;-73
2023/01/23 08:02:24;;;;;;;33.20;19.98;;;4.10;70.40;;;;;;5087870;28;20458;-75
2023/01/23 08:04:50;;;;;;;32.30;19.30;;;4.10;70.80;;;;;;5086545;28;20418;-74
2023/01/23 08:07:16;;;;;;;34.92;21.42;;;4.20;68.80;;;;;;5076063;28;20396;-73
2023/01/23 08:09:41;;;;;;;35.10;21.07;;;4.30;69.60;;;;;;5070398;28;20791;-74
2023/01/23 08:12:07;;;;;;;33.63;19.70;;;4.30;68.50;;;;;;5088736;28;20390;-73
2023/01/23 08:14:32;;;;;;;32.27;20.17;;;4.40;68.70;;;;;;5090662;28;20494;-73
2023/01/23 08:16:59;;;;;;;33.58;19.70;;;4.40;67.90;;;;;;5076867;28;20397;-74
2023/01/23 08:19:26;;;;;;;32.55;20.17;;;4.40;68.60;;;;;;5081975;28;20420;-74
2023/01/23 08:21:51;;;;;;;41.25;22.88;;;4.50;71.10;;;;;;5067770;28;20396;-72
2023/01/23 08:24:17;;;;;;;51.23;26.87;;;4.40;70.00;;;;;;5068868;28;20407;-73
2023/01/23 08:26:43;;;;;;;43.23;23.70;;;4.40;72.20;;;;;;5078328;28;20393;-73
2023/01/23 08:29:09;;;;;;;40.72;24.77;;;4.50;72.60;;;;;;5077680;28;20416;-78
2023/01/23 08:31:35;;;;;;;44.58;25.13;;;4.40;72.90;;;;;;5089101;28;20475;-73
2023/01/23 08:34:01;;;;;;;42.30;23.80;;;4.50;72.80;;;;;;5080242;28;20405;-72
2023/01/23 08:36:27;;;;;;;45.10;23.98;;;4.60;70.90;;;;;;5105267;28;20859;-72
2023/01/23 08:38:53;;;;;;;39.43;22.37;;;4.60;69.40;;;;;;5089128;28;20796;-72
2023/01/23 08:41:18;;;;;;;51.20;26.13;;;4.70;68.00;;;;;;5085223;28;20760;-73
2023/01/23 08:43:44;;;;;;;41.30;24.10;;;4.70;69.50;;;;;;5085394;28;20409;-73
2023/01/23 08:46:10;;;;;;;41.83;24.30;;;4.70;70.10;;;;;;5077627;28;20406;-73
2023/01/23 08:48:36;;;;;;;41.92;24.67;;;4.80;66.90;;;;;;5071324;28;20414;-75
2023/01/23 08:51:06;;;;;;;39.90;21.85;;;4.90;66.90;;;;;;5080218;28;20907;-72
2023/01/23 08:53:32;;;;;;;36.92;21.98;;;5.00;63.40;;;;;;5070996;28;20430;-73
2023/01/23 08:56:19;;;;;;;41.35;23.73;;;5.10;59.90;;;;;;5071021;28;20387;-73
2023/01/23 08:58:46;;;;;;;39.50;22.75;;;5.10;64.20;;;;;;5074938;28;20479;-73
2023/01/23 09:01:13;;;;;;;40.50;23.83;;;5.10;63.60;;;;;;5077960;28;20481;-74
2023/01/23 09:03:39;;;;;;;37.07;22.20;;;5.10;65.20;;;;;;5074011;28;20390;-74
2023/01/23 09:06:05;;;;;;;34.13;20.90;;;5.30;60.40;;;;;;5071013;28;20931;-72
2023/01/23 09:08:30;;;;;;;36.40;22.50;;;5.20;59.80;;;;;;5084956;28;20934;-73
2023/01/23 09:11:05;;;;;;;40.77;23.30;;;5.00;63.30;;;;;;5090437;28;20485;-72
2023/01/23 09:13:32;;;;;;;41.45;24.05;;;4.80;65.50;;;;;;5088684;28;20485;-74
2023/01/23 09:15:57;;;;;;;39.85;23.38;;;4.80;68.30;;;;;;5082811;28;20401;-72
2023/01/23 09:18:24;;;;;;;40.17;23.35;;;5.10;65.60;;;;;;5074411;28;21069;-72
2023/01/23 09:20:50;;;;;;;35.83;22.80;;;5.10;65.00;;;;;;5081030;28;20379;-76
2023/01/23 09:23:16;;;;;;;37.35;22.80;;;5.20;64.60;;;;;;5097179;28;20442;-77
2023/01/23 09:25:41;;;;;;;35.80;21.93;;;5.50;63.20;;;;;;5085405;28;20814;-76
2023/01/23 09:28:07;;;;;;;37.20;21.37;;;5.60;61.00;;;;;;5087035;28;20407;-76
2023/01/23 09:30:33;;;;;;;37.13;20.80;;;5.60;56.60;;;;;;5077324;28;20453;-75
2023/01/23 09:32:58;;;;;;;39.40;23.20;;;5.60;55.90;;;;;;5073241;28;20463;-77
2023/01/23 09:35:24;;;;;;;35.60;21.43;;;5.50;57.20;;;;;;5072928;28;20418;-77
2023/01/23 09:37:58;;;;;;;36.27;20.80;;;5.50;57.50;;;;;;5073374;28;20380;-77
2023/01/23 09:40:28;;;;;;;31.00;18.25;;;5.60;54.40;;;;;;5078198;28;20746;-74
2023/01/23 09:42:57;;;;;;;35.60;19.90;;;5.60;53.60;;;;;;5097652;28;20874;-73
2023/01/23 09:45:26;;;;;;;33.50;19.85;;;5.60;55.60;;;;;;5100548;28;20395;-73
2023/01/23 09:48:14;;;;;;;41.15;22.95;;;5.60;55.50;;;;;;5073854;28;20402;-74
2023/01/23 09:50:50;;;;;;;30.63;18.75;;;5.70;57.70;;;;;;5082381;28;20431;-74
2023/01/23 09:53:20;;;;;;;31.85;19.00;;;5.80;55.30;;;;;;5097440;28;20429;-73
2023/01/23 09:55:48;;;;;;;30.58;18.95;;;6.00;52.30;;;;;;5084321;28;20443;-73
2023/01/23 09:58:38;;;;;;;28.27;18.42;;;6.00;49.40;;;;;;5094327;28;20393;-75
2023/01/23 10:01:04;;;;;;;31.83;19.67;;;5.90;50.90;;;;;;5096932;28;20390;-73
2023/01/23 10:03:30;;;;;;;31.58;17.85;;;5.80;54.20;;;;;;5077931;28;20824;-74
2023/01/23 10:06:15;;;;;;;31.27;19.30;;;5.80;51.70;;;;;;5077369;28;20417;-75
2023/01/23 10:09:17;;;;;;;30.10;18.90;;;5.80;52.50;;;;;;5083784;28;20378;-73
2023/01/23 10:12:20;;;;;;;34.55;19.70;;;5.80;50.50;;;;;;5094285;28;20386;-74
2023/01/23 10:15:04;;;;;;;30.87;18.67;;;5.90;52.00;;;;;;5099449;28;20653;-73
2023/01/23 10:17:35;;;;;;;29.60;18.00;;;5.90;51.40;;;;;;5091934;28;20890;-73
2023/01/23 10:20:19;;;;;;;35.85;20.90;;;5.90;51.20;;;;;;5090969;28;20389;-72
2023/01/23 10:23:03;;;;;;;35.38;20.50;;;6.20;49.10;;;;;;5089989;28;20435;-72
2023/01/23 10:25:34;;;;;;;32.53;19.07;;;6.30;48.30;;;;;;5091833;28;20423;-73
2023/01/23 10:28:21;;;;;;;28.75;17.70;;;6.20;47.30;;;;;;5091795;28;20374;-72
2023/01/23 10:30:51;;;;;;;33.33;19.10;;;6.10;47.60;;;;;;5091593;28;20741;-73
2023/01/23 10:33:18;;;;;;;29.33;18.00;;;6.10;48.70;;;;;;5091253;28;20378;-73
2023/01/23 10:35:55;;;;;;;32.93;19.20;;;6.10;47.30;;;;;;5091718;28;20480;-72
2023/01/23 10:38:45;;;;;;;30.55;19.60;;;6.20;48.10;;;;;;5091452;28;20457;-73
2023/01/23 10:41:12;;;;;;;32.23;19.60;;;6.10;50.00;;;;;;5091264;28;20792;-73
2023/01/23 10:43:39;;;;;;;29.77;19.73;;;6.20;49.40;;;;;;5091477;28;20477;-73
2023/01/23 10:46:12;;;;;;;31.45;18.20;;;6.10;50.70;;;;;;5091203;28;20394;-73
2023/01/23 10:48:47;;;;;;;29.23;17.75;;;6.30;47.70;;;;;;5089376;28;20535;-72
2023/01/23 10:51:36;;;;;;;33.58;19.73;;;6.30;45.50;;;;;;5091269;28;20369;-74
2023/01/23 10:54:21;;;;;;;30.90;19.20;;;6.20;47.80;;;;;;5091272;28;20516;-74
2023/01/23 10:56:59;;;;;;;31.52;19.00;;;6.20;48.10;;;;;;5091214;28;20405;-74
2023/01/23 10:59:31;;;;;;;29.33;18.30;;;6.20;47.60;;;;;;5091320;28;20373;-74
2023/01/23 11:02:11;;;;;;;28.83;18.13;;;6.00;49.00;;;;;;5091037;28;20386;-74
2023/01/23 11:04:38;;;;;;;27.85;17.98;;;6.00;47.00;;;;;;5091212;28;20748;-74
2023/01/23 11:07:08;;;;;;;28.80;18.60;;;5.90;49.60;;;;;;5091235;28;20747;-73
2023/01/23 11:09:54;;;;;;;32.10;18.92;;;6.00;49.30;;;;;;5090699;28;20481;-74
2023/01/23 11:12:26;;;;;;;33.33;19.83;;;6.00;48.90;;;;;;5091028;28;20373;-74
2023/01/23 11:15:29;;;;;;;29.50;18.75;;;6.00;47.40;;;;;;5091094;28;20888;-73
2023/01/23 11:17:58;;;;;;;31.63;19.20;;;5.90;49.20;;;;;;5091072;28;20421;-72
2023/01/23 11:20:39;;;;;;;30.63;18.75;;;6.00;51.70;;;;;;5093140;28;20850;-74
2023/01/23 11:23:16;;;;;;;30.60;18.50;;;6.10;49.50;;;;;;5092275;28;20377;-74
2023/01/23 11:25:44;;;;;;;31.00;18.38;;;6.20;48.60;;;;;;5091347;28;20392;-73
2023/01/23 11:28:29;;;;;;;31.75;19.02;;;6.20;48.40;;;;;;5091331;28;20385;-74
2023/01/23 11:31:04;;;;;;;28.45;17.77;;;6.20;45.70;;;;;;5090545;28;20378;-73
2023/01/23 11:33:50;;;;;;;33.00;18.02;;;6.30;45.20;;;;;;5090997;28;20489;-72
2023/01/23 11:36:16;;;;;;;30.10;19.13;;;6.20;45.00;;;;;;5091162;28;20409;-73
2023/01/23 11:38:51;;;;;;;28.37;18.03;;;6.10;47.50;;;;;;5091022;28;20772;-74
2023/01/23 11:41:16;;;;;;;30.48;18.33;;;6.20;46.00;;;;;;5089144;28;20474;-73
2023/01/23 11:43:42;;;;;;;30.10;18.70;;;6.00;47.50;;;;;;5090696;28;20424;-73
2023/01/23 11:46:25;;;;;;;28.00;17.50;;;6.00;48.00;;;;;;5090540;28;20382;-73
2023/01/23 11:49:03;;;;;;;29.92;17.92;;;6.00;47.80;;;;;;5090396;28;20408;-73
2023/01/23 11:51:35;;;;;;;27.10;17.50;;;6.10;46.90;;;;;;5090299;28;20409;-74
2023/01/23 11:54:19;;;;;;;31.08;16.60;;;6.20;45.20;;;;;;5090575;28;20400;-73
2023/01/23 11:57:06;;;;;;;30.15;18.10;;;6.30;44.10;;;;;;5090237;28;20749;-73
2023/01/23 11:59:39;;;;;;;25.08;16.10;;;6.20;46.30;;;;;;5090589;28;20908;-73
2023/01/23 12:02:13;;;;;;;24.00;15.80;;;6.40;43.30;;;;;;5093337;28;20384;-75
2023/01/23 12:04:59;;;;;;;37.53;15.67;;;6.60;40.10;;;;;;5093857;28;20374;-74
2023/01/23 12:07:26;;;;;;;25.52;15.23;;;6.60;39.80;;;;;;5093617;28;20382;-74
2023/01/23 12:10:16;;;;;;;23.80;15.85;;;6.50;40.60;;;;;;5093859;28;20741;-72
2023/01/23 12:13:03;;;;;;;28.85;17.98;;;6.40;41.80;;;;;;5093560;28;20443;-73
2023/01/23 12:15:56;;;;;;;26.20;16.57;;;6.40;43.90;;;;;;5100680;28;20463;-73
2023/01/23 12:18:47;;;;;;;26.63;15.32;;;6.40;44.40;;;;;;5096783;28;20417;-73
2023/01/23 12:21:18;;;;;;;25.40;16.15;;;6.60;39.40;;;;;;5091971;28;20395;-73
2023/01/23 12:24:02;;;;;;;25.13;15.77;;;6.60;39.10;;;;;;5092738;28;20393;-73
2023/01/23 12:26:30;;;;;;;23.77;14.00;;;6.70;39.70;;;;;;5093666;28;20385;-74
2023/01/23 12:29:38;;;;;;;28.85;17.08;;;6.80;37.90;;;;;;5093763;28;20385;-74
2023/01/23 12:32:29;;;;;;;23.42;15.32;;;6.80;39.70;;;;;;5088235;28;20730;-75
2023/01/23 12:35:14;;;;;;;28.83;15.02;;;6.80;39.70;;;;;;5094149;28;20889;-74
2023/01/23 12:37:59;;;;;;;24.73;15.15;;;6.90;38.30;;;;;;5092813;28;20423;-72
2023/01/23 12:40:39;;;;;;;25.30;15.07;;;6.90;38.10;;;;;;5086722;28;20906;-73
2023/01/23 12:43:29;;;;;;;21.95;13.10;;;6.90;37.20;;;;;;5094183;28;20866;-74
2023/01/23 12:46:04;;;;;;;16.52;11.90;;;7.00;36.20;;;;;;5093822;28;20389;-72
2023/01/23 12:48:38;;;;;;;20.90;12.77;;;7.00;35.60;;;;;;5094173;28;20469;-74
2023/01/23 12:51:11;;;;;;;20.57;13.63;;;7.10;35.70;;;;;;5092824;28;20393;-73
2023/01/23 12:53:40;;;;;;;27.67;14.70;;;7.20;35.10;;;;;;5093646;28;20389;-73
2023/01/23 12:56:33;;;;;;;22.50;14.00;;;7.20;36.60;;;;;;5093898;28;20433;-72